Time;durP1;ratioP1;P1;durP2;ratioP2;P2;SDS_P1;SDS_P2;PMS_P1;PMS_P2;Temp;Humidity;BMP_temperature;BMP_pressure;BME280_temperature;BME280_humidity;BME280_pressure;Samples;Min_cycle;Max_cycle;Signal;HPM_P1;HPM_P2
2022/06/20 00:00:14;;;;;;;14.15;3.55;;;;;;;15.66;68.49;100861.19;5095077;28;20048;-61
2022/06/20 00:02:45;;;;;;;9.57;3.28;;;;;;;15.65;69.10;100854.22;5094402;28;20079;-61
2022/06/20 00:05:16;;;;;;;10.10;3.00;;;;;;;15.65;69.06;100846.19;5094647;28;20050;-62
2022/06/20 00:07:43;;;;;;;13.70;3.20;;;;;;;15.70;68.64;100841.13;5095551;28;20040;-62
2022/06/20 00:10:12;;;;;;;11.65;3.38;;;;;;;15.59;68.14;100836.22;5095611;28;20044;-62
2022/06/20 00:12:39;;;;;;;10.73;3.45;;;;;;;15.69;68.24;100837.59;5094169;28;20072;-61
2022/06/20 00:15:07;;;;;;;9.50;3.33;;;;;;;15.55;68.47;100843.75;5095472;28;20048;-61
2022/06/20 00:17:34;;;;;;;9.65;3.90;;;;;;;15.61;68.74;100843.03;5095076;28;20123;-62
2022/06/20 00:20:01;;;;;;;10.63;4.32;;;;;;;15.46;68.52;100843.06;5095002;28;20085;-61
2022/06/20 00:22:28;;;;;;;10.85;3.65;;;;;;;15.38;69.45;100836.97;5095045;28;20094;-61
2022/06/20 00:24:54;;;;;;;13.05;3.75;;;;;;;15.46;69.72;100826.16;5094746;28;20044;-61
2022/06/20 00:27:21;;;;;;;10.52;4.10;;;;;;;15.33;69.57;100810.75;5094650;28;20461;-61
2022/06/20 00:29:48;;;;;;;13.10;4.80;;;;;;;15.48;69.60;100795.56;5094709;28;20044;-61
2022/06/20 00:32:15;;;;;;;11.55;3.90;;;;;;;15.54;69.76;100797.50;5094871;28;20060;-60
2022/06/20 00:34:42;;;;;;;10.57;4.30;;;;;;;15.51;69.21;100792.50;5092692;28;20448;-62
2022/06/20 00:37:17;;;;;;;13.45;4.72;;;;;;;15.51;69.63;100776.47;5093385;28;20123;-60
2022/06/20 00:39:45;;;;;;;14.13;4.47;;;;;;;15.58;69.39;100763.19;5094557;28;20036;-60
2022/06/20 00:42:11;;;;;;;16.27;4.60;;;;;;;15.60;69.57;100747.78;5094435;28;20482;-62
2022/06/20 00:44:58;;;;;;;11.95;4.40;;;;;;;15.40;69.96;100728.00;5111516;27;20376;-61
2022/06/20 00:47:47;;;;;;;11.70;4.82;;;;;;;15.48;69.90;100719.88;5128973;28;20050;-61
2022/06/20 00:50:34;;;;;;;12.45;4.60;;;;;;;15.45;69.89;100745.13;5130727;28;20047;-61
2022/06/20 00:53:29;;;;;;;17.55;5.30;;;;;;;15.60;69.73;100771.84;5131204;28;20100;-60
2022/06/20 00:56:24;;;;;;;10.63;4.32;;;;;;;15.60;69.66;100785.22;5131087;28;20045;-60
2022/06/20 00:59:14;;;;;;;10.82;4.35;;;;;;;15.50;69.83;100803.41;5131315;28;20043;-61
2022/06/20 01:02:06;;;;;;;16.05;4.65;;;;;;;15.39;70.42;100828.75;5130582;28;20039;-61
2022/06/20 01:05:18;;;;;;;12.85;3.90;;;;;;;15.61;69.67;100851.06;5130815;28;20051;-61
2022/06/20 01:08:11;;;;;;;13.10;4.30;;;;;;;15.81;70.74;100893.31;5131262;28;20035;-60
2022/06/20 01:11:01;;;;;;;10.85;3.70;;;;;;;15.87;68.80;100946.09;5130953;28;20043;-61
2022/06/20 01:13:50;;;;;;;10.98;4.00;;;;;;;15.80;70.21;100983.44;5131061;28;20404;-61
2022/06/20 01:16:37;;;;;;;12.48;3.97;;;;;;;15.90;70.56;101007.25;5130789;27;20047;-61
2022/06/20 01:22:43;;;;;;;15.27;4.00;;;;;;;15.63;72.42;101070.97;5111438;27;20380;-60
2022/06/20 01:26:10;;;;;;;12.18;4.60;;;;;;;15.43;76.00;101108.06;5110897;28;20044;-60
2022/06/20 01:29:01;;;;;;;13.55;4.40;;;;;;;15.28;76.26;101116.00;5109822;28;20047;-60
2022/06/20 01:31:53;;;;;;;20.40;5.85;;;;;;;15.33;77.09;101102.09;5110744;28;20048;-60
2022/06/20 01:34:41;;;;;;;18.38;5.00;;;;;;;15.15;77.73;101086.31;5110299;28;20039;-60
2022/06/20 01:37:32;;;;;;;17.90;5.93;;;;;;;15.03;81.44;101085.91;5110588;28;20051;-60
2022/06/20 01:40:19;;;;;;;15.77;5.25;;;;;;;15.04;81.82;101076.88;5110667;28;20035;-59
2022/06/20 01:43:07;;;;;;;14.98;5.88;;;;;;;14.97;83.99;101041.16;5110723;28;20549;-60
2022/06/20 01:45:58;;;;;;;16.75;5.40;;;;;;;14.83;82.22;101034.75;5110544;28;20400;-60
2022/06/20 01:48:50;;;;;;;17.30;6.00;;;;;;;14.79;83.28;101017.41;5110623;28;20115;-60
2022/06/20 01:51:43;;;;;;;14.10;5.50;;;;;;;14.74;84.81;101003.75;5110371;28;20048;-60
2022/06/20 01:54:34;;;;;;;19.00;6.38;;;;;;;14.66;84.03;100985.94;5110585;28;20046;-59
2022/06/20 01:57:21;;;;;;;16.65;5.93;;;;;;;14.82;83.31;100950.28;5110188;28;20073;-60
2022/06/20 02:00:15;;;;;;;14.43;6.13;;;;;;;14.77;84.49;100939.28;5110210;28;20485;-61
2022/06/20 02:03:07;;;;;;;13.77;5.50;;;;;;;14.81;84.60;100924.59;5110329;28;20044;-60
2022/06/20 02:05:55;;;;;;;15.48;6.18;;;;;;;14.61;84.18;100920.72;5110048;28;20497;-60
2022/06/20 02:08:49;;;;;;;14.02;5.93;;;;;;;14.58;85.81;100892.53;5110110;28;20075;-60
2022/06/20 02:11:39;;;;;;;16.65;5.93;;;;;;;14.54;85.37;100862.66;5109267;28;20409;-59
2022/06/20 02:14:49;;;;;;;13.70;5.68;;;;;;;14.44;85.56;100834.53;5108870;28;20055;-61
2022/06/20 02:17:40;;;;;;;11.73;5.40;;;;;;;14.50;85.50;100818.66;5109868;28;20111;-60
2022/06/20 02:20:33;;;;;;;14.35;6.15;;;;;;;14.48;85.58;100777.13;5109620;28;20443;-59
2022/06/20 02:23:25;;;;;;;12.75;5.45;;;;;;;14.44;84.03;100754.47;5109828;28;20044;-60
2022/06/20 02:26:14;;;;;;;15.30;7.00;;;;;;;14.54;86.59;100731.03;5109925;28;20382;-60
2022/06/20 02:29:08;;;;;;;14.55;6.25;;;;;;;14.43;84.26;100699.47;5109494;28;20050;-60
2022/06/20 02:32:15;;;;;;;14.65;6.40;;;;;;;14.34;85.46;100675.50;5105026;28;20044;-60
2022/06/20 02:35:05;;;;;;;14.60;6.28;;;;;;;14.33;86.17;100662.31;5096026;28;20449;-60
2022/06/20 02:37:51;;;;;;;12.88;7.50;;;;;;;14.13;87.10;100630.81;5096090;28;20102;-60
2022/06/20 02:40:41;;;;;;;15.80;6.80;;;;;;;14.08;86.93;100613.69;5095917;28;20050;-59
2022/06/20 02:43:48;;;;;;;17.23;6.72;;;;;;;13.93;87.80;100601.13;5095936;28;20052;-59
2022/06/20 02:46:35;;;;;;;14.48;7.40;;;;;;;13.99;88.20;100587.09;5095557;28;20067;-59
2022/06/20 02:49:26;;;;;;;16.33;6.93;;;;;;;13.92;88.15;100596.00;5075712;28;20076;-61
2022/06/20 02:52:21;;;;;;;14.35;7.25;;;;;;;13.81;89.47;100616.75;5074628;28;20363;-60
2022/06/20 02:55:11;;;;;;;19.38;6.75;;;;;;;13.80;88.77;100622.25;5075382;28;20062;-60
2022/06/20 02:58:03;;;;;;;18.33;6.85;;;;;;;13.74;89.51;100646.97;5075315;28;20040;-60
2022/06/20 03:00:56;;;;;;;22.38;7.50;;;;;;;13.69;89.88;100644.81;5075183;28;20040;-60
2022/06/20 03:03:48;;;;;;;17.13;7.40;;;;;;;13.66;89.25;100657.66;5074868;28;20455;-60
2022/06/20 03:06:42;;;;;;;18.63;7.95;;;;;;;13.61;89.32;100660.88;5075187;28;20045;-60
2022/06/20 03:09:33;;;;;;;18.42;7.40;;;;;;;13.53;87.90;100652.91;5075338;28;20128;-60
2022/06/20 03:12:20;;;;;;;18.30;8.18;;;;;;;13.55;90.12;100649.09;5074160;28;20044;-59
2022/06/20 03:15:07;;;;;;;19.30;8.68;;;;;;;13.43;89.45;100640.66;5075115;28;20067;-60
2022/06/20 03:17:57;;;;;;;17.83;8.05;;;;;;;13.47;88.84;100638.47;5074977;28;20044;-60
2022/06/20 03:20:45;;;;;;;16.15;8.50;;;;;;;13.49;91.21;100641.78;5074634;28;20056;-59
2022/06/20 03:23:34;;;;;;;15.93;8.50;;;;;;;13.55;90.21;100648.22;5074935;28;20055;-60
2022/06/20 03:26:26;;;;;;;17.88;8.18;;;;;;;13.58;89.27;100658.56;5074691;28;20048;-60
2022/06/20 03:29:16;;;;;;;17.80;8.43;;;;;;;13.59;90.07;100660.22;5080203;28;20505;-60
2022/06/20 03:32:04;;;;;;;22.13;8.90;;;;;;;13.67;88.91;100665.50;5094845;28;20393;-59
2022/06/20 03:34:53;;;;;;;19.40;8.63;;;;;;;13.65;88.25;100672.00;5094574;28;20052;-60
2022/06/20 03:37:40;;;;;;;21.05;9.68;;;;;;;13.82;91.17;100674.41;5094734;28;20044;-59
2022/06/20 03:40:28;;;;;;;22.20;8.43;;;;;;;13.85;88.21;100677.72;5094699;28;20048;-59
2022/06/20 03:43:19;;;;;;;19.70;7.80;;;;;;;13.70;87.46;100670.47;5094594;28;20493;-59
2022/06/20 03:46:11;;;;;;;18.73;7.88;;;;;;;13.77;86.55;100670.59;5094454;28;20052;-59
2022/06/20 03:49:05;;;;;;;15.05;6.95;;;;;;;13.74;87.92;100677.13;5094708;28;20048;-59
2022/06/20 03:51:58;;;;;;;15.43;6.85;;;;;;;13.64;88.69;100697.81;5094647;28;20041;-59
2022/06/20 03:57:40;;;;;;;16.65;5.70;;;;;;;13.72;87.75;100742.28;5111117;27;20368;-59
2022/06/20 04:00:38;;;;;;;17.88;5.35;;;;;;;13.42;85.57;100764.25;5110984;28;20046;-59
2022/06/20 04:03:48;;;;;;;16.40;5.63;;;;;;;13.63;89.86;100802.78;5110309;28;20048;-59
2022/06/20 04:06:45;;;;;;;23.30;6.28;;;;;;;13.69;86.51;100827.94;5109578;28;20487;-59
2022/06/20 04:13:15;;;;;;;16.30;5.63;;;;;;;13.72;87.07;100891.56;5110747;28;20048;-60
2022/06/20 04:16:09;;;;;;;19.80;5.75;;;;;;;13.86;86.59;100908.69;5110448;28;20490;-59
2022/06/20 04:19:22;;;;;;;18.00;5.75;;;;;;;13.82;85.62;100917.03;5110527;28;20089;-60
2022/06/20 04:22:15;;;;;;;13.00;5.50;;;;;;;13.83;85.14;100910.69;5110630;28;20444;-59
2022/06/20 04:25:22;;;;;;;14.95;4.93;;;;;;;13.73;84.83;100920.69;5110420;28;20079;-60
2022/06/20 04:28:24;;;;;;;14.23;5.40;;;;;;;13.87;85.52;100945.03;5110315;28;20044;-60
2022/06/20 04:31:18;;;;;;;23.87;6.23;;;;;;;13.80;84.15;100948.34;5089497;28;20044;-60
2022/06/20 04:34:44;;;;;;;18.02;6.22;;;;;;;13.79;86.17;100948.53;5090182;28;20131;-60
2022/06/20 04:37:38;;;;;;;20.20;5.65;;;;;;;13.86;87.84;100967.34;5088538;28;20040;-60
2022/06/20 04:40:30;;;;;;;21.08;5.43;;;;;;;13.80;84.06;100963.53;5089455;28;20063;-60
2022/06/20 04:43:30;;;;;;;;;;;;;;;13.69;84.49;100967.38;5090218;28;20079;-60
2022/06/20 04:46:25;;;;;;;12.43;4.70;;;;;;;13.67;84.81;100984.56;5089660;28;19920;-60
2022/06/20 04:49:14;;;;;;;20.65;4.88;;;;;;;13.61;86.37;100978.88;5093746;28;20084;-59
2022/06/20 04:52:01;;;;;;;16.00;4.90;;;;;;;13.70;86.87;100970.88;5088354;28;20048;-59
2022/06/20 04:54:48;;;;;;;13.70;4.72;;;;;;;13.79;87.06;100961.88;5089618;28;20526;-60
2022/06/20 04:57:36;;;;;;;16.17;6.03;;;;;;;13.65;86.09;100963.38;5089147;28;20048;-59
2022/06/20 05:00:30;;;;;;;16.73;5.13;;;;;;;13.73;85.37;100946.53;5089465;28;20044;-59
2022/06/20 05:03:22;;;;;;;16.52;5.00;;;;;;;13.77;86.35;100946.03;5089469;28;20044;-60
2022/06/20 05:06:16;;;;;;;18.23;5.18;;;;;;;13.79;86.92;100945.88;5089141;28;20082;-60
2022/06/20 05:09:14;;;;;;;18.13;5.57;;;;;;;13.85;88.37;100941.69;5075458;28;20053;-60
2022/06/20 05:12:08;;;;;;;18.35;5.50;;;;;;;13.98;87.68;100936.66;5075779;28;20076;-59
2022/06/20 05:15:04;;;;;;;15.00;4.93;;;;;;;13.93;86.99;100931.00;5075563;28;20049;-60
2022/06/20 05:17:53;;;;;;;16.83;5.18;;;;;;;13.92;85.90;100938.16;5075594;28;20127;-60
2022/06/20 05:20:42;;;;;;;16.15;4.28;;;;;;;13.68;83.77;100940.88;5075663;28;20105;-60
2022/06/20 05:23:36;;;;;;;12.77;4.70;;;;;;;13.82;85.93;100929.53;5075628;28;20045;-60
2022/06/20 05:26:29;;;;;;;19.38;4.95;;;;;;;13.74;87.93;100943.72;5075267;28;20425;-60
2022/06/20 05:29:21;;;;;;;;;;;;;;;13.73;85.71;100947.38;5082593;28;20044;-59
2022/06/20 05:32:16;;;;;;;24.13;5.32;;;;;;;13.74;86.52;100946.38;5094670;28;19920;-59
2022/06/20 05:35:12;;;;;;;21.65;5.70;;;;;;;13.66;87.02;100942.88;5095643;28;20055;-60
2022/06/20 05:38:00;;;;;;;19.67;5.20;;;;;;;13.62;86.39;100937.91;5095563;28;20426;-59
2022/06/20 05:40:37;;;;;;;20.38;4.78;;;;;;;13.58;85.28;100944.56;5095472;28;20513;-59
2022/06/20 05:43:12;;;;;;;17.00;4.93;;;;;;;13.53;84.75;100940.75;5095628;28;20077;-60
2022/06/20 05:45:39;;;;;;;26.50;6.15;;;;;;;13.61;86.16;100943.41;5095685;28;20142;-59
2022/06/20 05:48:11;;;;;;;25.85;5.72;;;;;;;13.65;85.09;100938.56;5095085;28;20040;-60
2022/06/20 05:50:46;;;;;;;17.08;5.10;;;;;;;13.56;85.04;100943.06;5093975;28;20040;-59
2022/06/20 05:53:24;;;;;;;23.80;5.13;;;;;;;13.51;86.27;100940.09;5095200;28;20052;-59
2022/06/20 05:55:55;;;;;;;22.38;5.40;;;;;;;13.65;88.23;100938.56;5094687;28;20063;-59
2022/06/20 05:58:28;;;;;;;17.23;5.22;;;;;;;13.60;86.97;100963.06;5094773;28;20081;-59
2022/06/20 06:01:06;;;;;;;24.15;5.53;;;;;;;13.55;85.82;100950.25;5095232;28;20078;-59
2022/06/20 06:03:40;;;;;;;21.10;4.97;;;;;;;13.47;84.62;100946.75;5086609;28;20098;-60
2022/06/20 06:06:16;;;;;;;23.90;5.20;;;;;;;13.54;86.22;100943.25;5094820;28;20047;-59
2022/06/20 06:08:51;;;;;;;22.05;5.20;;;;;;;13.61;85.04;100938.06;5094767;28;20072;-59
2022/06/20 06:11:25;;;;;;;26.17;5.20;;;;;;;13.62;85.62;100921.91;5095352;28;20055;-59
2022/06/20 06:14:02;;;;;;;20.60;6.00;;;;;;;13.75;86.50;100916.06;5094813;28;20040;-60
2022/06/20 06:16:48;;;;;;;24.33;5.40;;;;;;;13.73;86.49;100910.03;5077549;28;20080;-60
2022/06/20 06:21:58;;;;;;;20.42;5.15;;;;;;;13.71;83.92;100928.03;5111322;27;20380;-59
2022/06/20 06:24:30;;;;;;;20.20;4.78;;;;;;;13.72;84.27;100940.38;5110701;28;20383;-59
2022/06/20 06:26:59;;;;;;;22.73;5.13;;;;;;;13.65;83.17;100939.41;5110785;28;20405;-60
2022/06/20 06:29:41;;;;;;;18.15;5.70;;;;;;;13.80;84.32;100934.19;5110743;28;20036;-59
2022/06/20 06:32:19;;;;;;;25.80;5.50;;;;;;;13.96;85.31;100918.16;5111033;28;20501;-59
2022/06/20 06:35:00;;;;;;;20.45;5.63;;;;;;;13.98;84.70;100936.66;5110214;28;20075;-60
2022/06/20 06:37:34;;;;;;;21.45;4.57;;;;;;;13.82;82.19;100949.03;5110955;28;20405;-60
2022/06/20 06:42:40;;;;;;;15.65;3.22;;;;;;;13.62;77.93;100935.25;5111290;27;20380;-59
2022/06/20 06:45:21;;;;;;;13.63;2.50;;;;;;;13.55;75.77;100944.06;5110955;28;20043;-59
2022/06/20 06:47:56;;;;;;;13.40;3.53;;;;;;;13.42;77.81;100960.56;5109030;28;20043;-59
2022/06/20 06:50:33;;;;;;;15.75;3.80;;;;;;;13.53;80.42;100968.22;5128578;28;20050;-59
2022/06/20 06:53:10;;;;;;;21.23;3.88;;;;;;;13.58;81.65;100971.22;5131036;27;20043;-59
2022/06/20 06:55:41;;;;;;;23.63;3.80;;;;;;;13.58;81.97;100965.88;5130733;27;20044;-59
2022/06/20 06:58:14;;;;;;;;;;;;;;;13.62;82.93;100969.91;5131839;28;20066;-59
2022/06/20 07:00:44;;;;;;;;;;;;;;;13.66;83.82;100981.06;5131596;28;20374;-59
2022/06/20 07:03:25;;;;;;;12.88;3.80;;;;;;;13.71;83.90;100986.69;5131655;27;19926;-58
2022/06/20 07:06:00;;;;;;;20.38;4.13;;;;;;;13.77;85.54;100982.50;5131265;27;20054;-59
2022/06/20 07:08:52;;;;;;;25.77;4.32;;;;;;;13.63;82.71;100982.22;5123428;28;20040;-58
2022/06/20 07:11:23;;;;;;;15.50;4.30;;;;;;;13.83;84.44;100973.88;5124380;28;20085;-59
2022/06/20 07:14:09;;;;;;;19.85;4.20;;;;;;;13.90;82.45;100985.50;5120720;28;20510;-59
2022/06/20 07:17:03;;;;;;;17.90;4.35;;;;;;;14.10;83.49;100999.31;5111707;28;20401;-59
2022/06/20 07:19:30;;;;;;;20.17;4.32;;;;;;;14.18;83.63;101009.94;5120519;27;20039;-59
2022/06/20 07:21:59;;;;;;;21.75;4.82;;;;;;;14.25;82.75;101018.09;5115459;28;20040;-61
2022/06/20 07:24:29;;;;;;;17.90;4.50;;;;;;;14.36;82.66;101019.56;5111701;28;20036;-61
2022/06/20 07:27:25;;;;;;;19.20;5.88;;;;;;;14.33;81.78;101025.25;5110334;28;20048;-61
2022/06/20 07:30:00;;;;;;;17.88;4.78;;;;;;;14.52;81.88;101029.34;5098558;28;20048;-61
2022/06/20 07:32:36;;;;;;;28.15;5.90;;;;;;;14.61;82.79;101028.34;5110683;27;20060;-61
2022/06/20 07:35:13;;;;;;;25.42;5.50;;;;;;;14.49;81.25;101019.84;5094278;28;20044;-63
2022/06/20 07:37:56;;;;;;;20.27;4.63;;;;;;;14.34;82.02;101024.25;5091802;28;20071;-60
2022/06/20 07:40:31;;;;;;;18.25;4.85;;;;;;;14.49;82.04;101017.16;5123424;28;20899;-60
2022/06/20 07:45:42;;;;;;;17.27;4.30;;;;;;;14.63;79.74;101012.97;5113581;27;20391;-60
2022/06/20 07:48:19;;;;;;;;;;;;;;;14.83;80.46;101018.72;5115911;28;20055;-60
2022/06/20 07:50:52;;;;;;;22.77;4.60;;;;;;;15.02;80.53;101014.75;5125888;28;20280;-62
2022/06/20 07:53:27;;;;;;;14.35;4.07;;;;;;;15.04;80.53;101017.25;5108640;28;20031;-62
2022/06/20 07:56:00;;;;;;;16.95;3.92;;;;;;;15.14;79.19;101015.19;5109330;28;20040;-62
2022/06/20 07:58:33;;;;;;;17.80;4.10;;;;;;;15.14;78.72;101018.69;5124746;28;20077;-62
2022/06/20 08:01:07;;;;;;;22.08;4.93;;;;;;;14.96;77.41;101023.50;5079478;28;20576;-62
2022/06/20 08:03:39;;;;;;;23.60;4.70;;;;;;;15.14;79.21;101032.06;5097891;28;20130;-62
2022/06/20 08:09:06;;;;;;;22.92;4.70;;;;;;;15.25;76.71;101028.16;5073541;28;20409;-61
2022/06/20 08:12:00;;;;;;;17.70;4.00;;;;;;;15.42;76.02;101039.53;5080455;28;20175;-61
2022/06/20 08:17:09;;;;;;;15.20;3.45;;;;;;;15.39;72.00;101058.63;5124993;27;20365;-61
2022/06/20 08:19:39;;;;;;;15.40;4.22;;;;;;;15.53;72.96;101055.19;5119772;27;20048;-61
2022/06/20 08:22:15;;;;;;;17.40;3.70;;;;;;;15.65;74.42;101057.44;5108284;28;20113;-61
2022/06/20 08:27:42;;;;;;;18.77;5.30;;;;;;;15.73;75.41;101071.56;5115047;27;20858;-60
2022/06/20 08:30:19;;;;;;;22.30;5.10;;;;;;;15.89;75.94;101064.44;5116664;28;20074;-60
2022/06/20 08:33:14;;;;;;;21.00;5.10;;;;;;;16.02;74.06;101070.00;5106016;28;20045;-60
2022/06/20 08:35:49;;;;;;;22.48;6.30;;;;;;;15.97;74.79;101080.44;5120758;27;20066;-61
2022/06/20 08:38:23;;;;;;;23.45;8.00;;;;;;;15.79;71.02;101087.91;5098549;28;20037;-60
2022/06/20 08:41:21;;;;;;;26.55;10.23;;;;;;;15.79;71.29;101090.59;5111006;28;20131;-60
2022/06/20 08:44:27;;;;;;;29.38;9.32;;;;;;;15.79;73.58;101083.44;5118622;27;20122;-60
2022/06/20 08:47:28;;;;;;;27.65;9.18;;;;;;;16.01;71.74;101091.56;5118111;28;20043;-60
2022/06/20 08:50:28;;;;;;;27.92;10.10;;;;;;;16.10;71.08;101093.19;5110607;28;20126;-60
2022/06/20 08:53:48;;;;;;;33.95;10.57;;;;;;;16.52;68.66;101097.09;5104037;28;20556;-60
2022/06/20 08:56:28;;;;;;;24.75;7.97;;;;;;;16.58;65.21;101098.22;5120329;28;20127;-60
2022/06/20 08:59:17;;;;;;;23.30;7.90;;;;;;;16.73;69.42;101100.88;5106277;28;20055;-60
2022/06/20 09:01:55;;;;;;;15.82;5.70;;;;;;;16.89;65.86;101095.34;5099608;28;20377;-60
2022/06/20 09:07:41;;;;;;;12.23;3.55;;;;;;;17.20;60.42;101091.59;5116053;27;20390;-60
2022/06/20 09:10:37;;;;;;;12.88;3.10;;;;;;;17.21;58.66;101093.25;5108654;27;20690;-60
2022/06/20 09:13:44;;;;;;;14.63;3.20;;;;;;;17.59;60.95;101091.19;5113271;28;20055;-65
2022/06/20 09:16:38;;;;;;;16.38;2.90;;;;;;;17.44;57.60;101096.59;5122087;28;20565;-60
2022/06/20 09:19:29;;;;;;;13.93;3.20;;;;;;;17.46;57.86;101094.56;5100446;28;20044;-60
2022/06/20 09:22:24;;;;;;;13.82;3.42;;;;;;;17.38;60.83;101102.72;5111334;28;20048;-60
2022/06/20 09:25:30;;;;;;;16.17;3.72;;;;;;;17.16;58.53;101093.81;5095197;28;20040;-60
2022/06/20 09:28:21;;;;;;;13.65;4.40;;;;;;;17.22;58.01;101103.78;5120863;27;20138;-59
2022/06/20 09:33:58;;;;;;;17.08;3.67;;;;;;;17.69;57.01;101111.50;5118083;27;20379;-59
2022/06/20 09:36:57;;;;;;;21.15;3.88;;;;;;;17.89;53.88;101112.53;5107670;28;20550;-59
2022/06/20 09:39:40;;;;;;;14.70;3.80;;;;;;;18.30;53.68;101109.13;5115626;28;20054;-60
2022/06/20 09:42:22;;;;;;;17.95;2.95;;;;;;;18.26;52.90;101118.59;5117850;27;20114;-60
2022/06/20 09:45:03;;;;;;;14.88;3.30;;;;;;;18.21;54.09;101118.38;5110720;28;20504;-59
2022/06/20 09:47:38;;;;;;;;;;;;;;;18.14;55.10;101122.84;5113525;28;20115;-60
2022/06/20 09:50:21;;;;;;;12.15;3.22;;;;;;;18.34;53.49;101120.31;5115493;28;20423;-66
2022/06/20 09:53:03;;;;;;;8.52;2.70;;;;;;;18.48;51.40;101126.59;5109884;28;20537;-67
2022/06/20 09:55:44;;;;;;;12.60;3.47;;;;;;;18.73;53.11;101132.31;5104719;28;20566;-67
2022/06/20 09:58:36;;;;;;;14.20;4.30;;;;;;;18.93;53.03;101127.91;5115314;28;20044;-67
2022/06/20 10:01:13;;;;;;;11.88;2.95;;;;;;;18.69;50.70;101125.69;5107591;28;20104;-67
2022/06/20 10:04:07;;;;;;;12.52;3.08;;;;;;;18.53;52.67;101127.66;5119714;28;20093;-67
2022/06/20 10:07:14;;;;;;;14.32;3.20;;;;;;;18.40;52.22;101123.03;5118698;28;20044;-67
2022/06/20 10:10:12;;;;;;;14.77;2.85;;;;;;;18.30;53.46;101127.06;5107290;28;20126;-65
2022/06/20 10:18:29;;;;;;;9.85;2.95;;;;;;;18.39;53.49;101144.69;5062667;28;20377;-67
2022/06/20 10:21:08;;;;;;;13.13;2.90;;;;;;;18.93;51.50;101141.34;5053600;28;20436;-67
2022/06/20 10:23:48;;;;;;;11.73;2.60;;;;;;;19.24;51.95;101156.16;5054380;28;20040;-67
2022/06/20 10:29:17;;;;;;;12.80;3.10;;;;;;;19.73;49.42;101147.00;5106900;27;20389;-66
2022/06/20 10:31:54;;;;;;;8.35;2.50;;;;;;;19.69;49.48;101155.66;5087482;28;20040;-66
2022/06/20 10:34:50;;;;;;;14.35;2.60;;;;;;;19.85;48.38;101149.94;5090282;28;20553;-66
2022/06/20 10:37:27;;;;;;;11.38;2.40;;;;;;;19.74;48.34;101162.13;5082781;28;20036;-66
2022/06/20 10:39:59;;;;;;;12.60;2.40;;;;;;;19.40;47.81;101159.53;5092964;28;20071;-67
2022/06/20 10:42:54;;;;;;;14.75;2.70;;;;;;;19.45;48.44;101167.84;5089443;28;20102;-67
2022/06/20 10:45:45;;;;;;;10.90;2.80;;;;;;;19.47;47.40;101160.38;5088882;28;20401;-66
2022/06/20 10:48:51;;;;;;;12.95;2.88;;;;;;;19.12;49.36;101163.97;5092587;28;20040;-66
2022/06/20 10:51:45;;;;;;;10.85;2.60;;;;;;;19.04;48.42;101169.50;5085873;28;20044;-67
2022/06/20 10:57:11;;;;;;;11.98;2.65;;;;;;;19.24;48.83;101176.84;5075920;28;20357;-66
2022/06/20 11:00:10;;;;;;;12.00;2.83;;;;;;;19.48;48.27;101170.09;5053685;28;20502;-66
2022/06/20 11:03:07;;;;;;;14.45;3.53;;;;;;;19.32;48.85;101172.13;5046333;28;20477;-66
2022/06/20 11:09:04;;;;;;;15.27;3.90;;;;;;;19.81;48.26;101169.38;5166192;27;20736;-66
2022/06/20 11:12:11;;;;;;;13.95;3.65;;;;;;;19.87;46.67;101172.06;5150964;27;20054;-66
2022/06/20 11:15:07;;;;;;;14.98;2.97;;;;;;;20.10;46.91;101166.31;5134760;27;20042;-66
2022/06/20 11:17:47;;;;;;;13.18;2.92;;;;;;;20.22;45.34;101161.13;5137365;27;20031;-67
2022/06/20 11:20:23;;;;;;;11.68;2.70;;;;;;;20.27;45.69;101158.63;5149333;27;20047;-67
2022/06/20 11:23:14;;;;;;;11.00;2.90;;;;;;;20.28;45.37;101156.75;5149496;27;20092;-67
2022/06/20 11:26:08;;;;;;;10.98;3.45;;;;;;;20.57;45.35;101165.44;5126920;27;20377;-67
2022/06/20 11:29:03;;;;;;;27.45;13.13;;;;;;;20.42;45.75;101162.97;5136787;27;20450;-66
2022/06/20 11:31:48;;;;;;;16.45;3.83;;;;;;;20.11;45.65;101164.44;5150977;27;20058;-66
2022/06/20 11:34:56;;;;;;;15.18;3.70;;;;;;;19.99;45.20;101164.22;5103567;27;20062;-66
2022/06/20 11:40:37;;;;;;;13.63;3.25;;;;;;;19.80;49.58;101168.53;5109954;27;20410;-66
2022/06/20 11:43:26;;;;;;;12.38;3.28;;;;;;;19.98;46.12;101165.25;5077887;28;20043;-65
2022/06/20 11:49:07;;;;;;;15.15;4.13;;;;;;;20.50;45.11;101165.44;5106945;27;20086;-67
2022/06/20 11:51:59;;;;;;;10.40;2.97;;;;;;;20.54;44.95;101164.00;5104687;28;20047;-66
2022/06/20 11:57:55;;;;;;;13.50;3.50;;;;;;;20.31;43.97;101167.13;5106693;27;20861;-66
2022/06/20 12:00:44;;;;;;;13.82;3.53;;;;;;;20.67;45.97;101166.69;5076925;28;20035;-66
2022/06/20 12:03:25;;;;;;;11.23;3.17;;;;;;;20.64;43.54;101167.09;5096791;28;20051;-66
2022/06/20 12:06:18;;;;;;;10.80;3.30;;;;;;;20.81;43.32;101162.09;5093740;28;20044;-67
2022/06/20 12:09:27;;;;;;;14.77;3.22;;;;;;;20.59;42.92;101157.97;5090980;28;20046;-67
2022/06/20 12:12:10;;;;;;;16.05;3.60;;;;;;;20.16;43.62;101153.06;5092347;28;20094;-67
2022/06/20 12:15:11;;;;;;;12.93;3.20;;;;;;;20.04;45.77;101156.34;5102661;28;20064;-66
2022/06/20 12:17:47;;;;;;;13.35;3.10;;;;;;;20.19;48.54;101147.22;5086389;28;20036;-67
2022/06/20 12:23:28;;;;;;;9.65;3.30;;;;;;;20.58;45.62;101143.66;5089908;28;20090;-66
2022/06/20 12:26:04;;;;;;;12.70;3.08;;;;;;;20.56;44.98;101148.44;5079201;28;20068;-66
2022/06/20 12:28:34;;;;;;;14.55;3.10;;;;;;;20.76;45.70;101145.72;5098667;28;20504;-68
2022/06/20 12:34:12;;;;;;;11.25;3.42;;;;;;;20.39;44.19;101145.38;5108201;27;20404;-67
2022/06/20 12:36:55;;;;;;;9.80;3.05;;;;;;;20.23;44.06;101145.78;5075282;28;20374;-66
2022/06/20 12:39:31;;;;;;;10.93;3.30;;;;;;;20.13;44.42;101141.63;5087287;28;20059;-66
2022/06/20 12:42:11;;;;;;;10.43;2.90;;;;;;;20.29;44.23;101137.69;5105600;28;20345;-66
2022/06/20 12:44:54;;;;;;;13.68;3.35;;;;;;;20.09;45.68;101140.41;5109428;28;20044;-66
2022/06/20 12:50:48;;;;;;;12.52;3.55;;;;;;;19.56;44.83;101145.72;5149803;27;20404;-67
2022/06/20 12:53:55;;;;;;;12.55;3.40;;;;;;;19.86;44.25;101140.78;5127488;28;20036;-67
2022/06/20 12:56:42;;;;;;;11.10;2.80;;;;;;;20.60;42.35;101140.78;5112483;28;20373;-66
2022/06/20 12:59:42;;;;;;;13.82;3.60;;;;;;;20.90;42.70;101139.25;5107089;28;20110;-67
2022/06/20 13:02:19;;;;;;;10.15;3.10;;;;;;;21.05;42.37;101149.78;5105170;28;20044;-66
2022/06/20 13:05:26;;;;;;;12.60;3.40;;;;;;;21.47;42.60;101144.84;5128890;28;20066;-67
2022/06/20 13:08:28;;;;;;;13.13;3.20;;;;;;;21.55;39.94;101138.34;5109270;28;20048;-66
2022/06/20 13:11:28;;;;;;;12.55;3.35;;;;;;;21.03;40.09;101143.78;5119542;28;20046;-68
2022/06/20 13:14:24;;;;;;;10.95;4.00;;;;;;;20.67;41.47;101153.22;5128631;28;20123;-68
2022/06/20 13:17:13;;;;;;;10.02;2.83;;;;;;;20.65;41.21;101155.28;5090509;28;20043;-67
2022/06/20 13:19:56;;;;;;;10.45;3.15;;;;;;;20.76;41.18;101151.13;5125507;28;20039;-67
2022/06/20 13:22:37;;;;;;;10.13;4.00;;;;;;;20.77;42.10;101147.38;5117787;28;20035;-68
2022/06/20 13:25:43;;;;;;;13.00;3.05;;;;;;;20.71;43.26;101149.06;5112054;28;20396;-67
2022/06/20 13:28:33;;;;;;;11.50;3.88;;;;;;;21.40;42.35;101149.41;5119460;28;20036;-68
2022/06/20 13:31:16;;;;;;;10.70;3.28;;;;;;;21.81;41.32;101147.31;5128240;28;20039;-67
2022/06/20 13:33:56;;;;;;;14.68;4.50;;;;;;;22.08;39.38;101144.41;5127306;28;20118;-68
2022/06/20 13:36:39;;;;;;;12.23;3.20;;;;;;;22.27;39.38;101137.22;5114982;28;20370;-68
2022/06/20 13:39:30;;;;;;;23.25;9.65;;;;;;;22.50;39.73;101142.78;5110673;28;20036;-68
2022/06/20 13:42:10;;;;;;;21.90;6.05;;;;;;;22.57;38.98;101148.94;5128395;28;20055;-68
2022/06/20 13:44:49;;;;;;;28.38;8.60;;;;;;;22.88;39.04;101141.75;5128421;28;20047;-68
2022/06/20 13:47:37;;;;;;;21.55;5.28;;;;;;;22.56;36.86;101139.22;5127470;28;20066;-68
2022/06/20 13:50:26;;;;;;;22.63;7.43;;;;;;;22.53;37.98;101136.94;5126677;28;20101;-68